createdAt,value
2022-08-17T00:01:44.924Z,25.58
2022-08-17T00:04:21.629Z,23.67
2022-08-17T00:06:49.659Z,21.92
2022-08-17T00:09:18.336Z,23.17
2022-08-17T00:12:34.650Z,23.77
2022-08-17T00:14:36.346Z,22.83
2022-08-17T00:17:07.125Z,22.92
2022-08-17T00:19:34.150Z,24.80
2022-08-17T00:22:32.141Z,24.40
2022-08-17T00:24:50.645Z,24.40
2022-08-17T00:27:18.657Z,24.50
2022-08-17T00:29:46.034Z,21.73
2022-08-17T00:33:11.958Z,21.70
2022-08-17T00:35:05.235Z,21.98
2022-08-17T00:37:32.363Z,20.45
2022-08-17T00:39:59.396Z,21.30
2022-08-17T00:42:30.983Z,21.55
2022-08-17T00:44:59.073Z,23.45
2022-08-17T00:47:26.282Z,22.63
2022-08-17T00:49:54.070Z,21.83
2022-08-17T00:52:24.212Z,21.00
2022-08-17T00:54:54.857Z,21.85
2022-08-17T00:57:28.496Z,19.50
2022-08-17T01:00:06.762Z,19.88
2022-08-17T01:02:42.105Z,21.98
2022-08-17T01:05:19.747Z,21.67
2022-08-17T01:07:51.050Z,22.83
2022-08-17T01:10:58.841Z,22.02
2022-08-17T01:13:11.313Z,21.25
2022-08-17T01:15:41.511Z,21.55
2022-08-17T01:18:13.912Z,22.73
2022-08-17T01:20:48.203Z,22.20
2022-08-17T01:23:20.851Z,22.25
2022-08-17T01:25:54.170Z,22.88
2022-08-17T01:28:53.137Z,22.10
2022-08-17T01:31:10.638Z,22.33
2022-08-17T01:33:37.953Z,24.48
2022-08-17T01:36:07.326Z,23.77
2022-08-17T01:38:35.930Z,24.05
2022-08-17T01:41:08.054Z,25.98
2022-08-17T01:43:44.912Z,25.98
2022-08-17T01:46:17.082Z,24.25
2022-08-17T01:48:47.548Z,25.00
2022-08-17T01:51:16.076Z,27.80
2022-08-17T01:53:50.650Z,28.08
2022-08-17T01:56:21.380Z,28.48
2022-08-17T01:58:48.689Z,26.40
2022-08-17T02:01:20.928Z,28.40
2022-08-17T02:03:53.260Z,27.05
2022-08-17T02:06:27.802Z,26.60
2022-08-17T02:09:01.787Z,25.50
2022-08-17T02:11:33.300Z,28.35
2022-08-17T02:14:03.393Z,27.30
2022-08-17T02:16:38.235Z,27.02
2022-08-17T02:19:08.532Z,28.00
2022-08-17T02:21:37.314Z,26.92
2022-08-17T02:24:06.859Z,27.40
2022-08-17T02:26:33.929Z,26.98
2022-08-17T02:29:00.776Z,27.13
2022-08-17T02:31:27.597Z,27.55
2022-08-17T02:33:56.789Z,27.73
2022-08-17T02:36:31.927Z,27.88
2022-08-17T02:39:05.271Z,28.90
2022-08-17T02:41:33.120Z,30.23
2022-08-17T02:44:01.078Z,29.63
2022-08-17T02:46:28.537Z,29.20
2022-08-17T02:48:55.387Z,28.90
2022-08-17T02:51:22.615Z,29.85
2022-08-17T02:53:49.760Z,27.10
2022-08-17T02:56:17.061Z,26.98
2022-08-17T02:58:44.065Z,27.38
2022-08-17T03:01:11.142Z,28.15
2022-08-17T03:03:38.819Z,27.98
2022-08-17T03:06:07.735Z,29.85
2022-08-17T03:08:35.424Z,28.88
2022-08-17T03:11:02.261Z,31.45
2022-08-17T03:13:30.870Z,31.83
2022-08-17T03:15:58.182Z,32.25
2022-08-17T03:18:26.319Z,31.70
2022-08-17T03:20:55.729Z,33.40
2022-08-17T03:23:24.384Z,33.42
2022-08-17T03:28:20.318Z,33.38
2022-08-17T03:30:47.541Z,32.20
2022-08-17T03:33:14.777Z,31.85
2022-08-17T03:35:41.857Z,27.17
2022-08-17T03:38:11.126Z,26.30
2022-08-17T03:40:56.674Z,27.83
2022-08-17T03:43:30.063Z,30.48
2022-08-17T03:46:27.273Z,32.65
2022-08-17T03:49:19.910Z,33.83
2022-08-17T03:52:05.372Z,34.95
2022-08-17T03:54:51.094Z,32.15
2022-08-17T03:57:19.274Z,29.77
2022-08-17T03:59:47.734Z,34.92
2022-08-17T04:02:20.789Z,31.70
2022-08-17T04:04:52.369Z,34.90
2022-08-17T04:07:22.032Z,31.20
2022-08-17T04:09:49.688Z,30.38
2022-08-17T04:12:22.321Z,31.77
2022-08-17T04:14:53.381Z,30.40
2022-08-17T04:17:24.687Z,31.33
2022-08-17T04:19:52.160Z,30.80
2022-08-17T04:22:30.249Z,28.35
2022-08-17T04:25:16.070Z,28.13
2022-08-17T04:27:42.906Z,28.67
2022-08-17T04:30:10.708Z,28.23
2022-08-17T04:33:05.090Z,26.23
2022-08-17T04:35:39.315Z,27.02
2022-08-17T04:38:11.137Z,25.25
2022-08-17T04:40:57.045Z,23.10
2022-08-17T04:43:26.794Z,20.05
2022-08-17T04:46:02.504Z,18.73
2022-08-17T04:48:36.168Z,17.08
2022-08-17T04:51:09.914Z,16.27
2022-08-17T04:53:38.126Z,17.77
2022-08-17T04:56:05.487Z,16.08
2022-08-17T04:58:32.749Z,14.88
2022-08-17T05:00:59.948Z,12.50
2022-08-17T05:03:28.345Z,12.35
2022-08-17T05:05:55.277Z,11.80
2022-08-17T05:08:22.591Z,12.30
2022-08-17T05:10:50.251Z,13.00
2022-08-17T05:13:19.853Z,11.32
2022-08-17T05:15:48.857Z,11.93
2022-08-17T05:18:16.763Z,12.07
2022-08-17T05:20:44.068Z,12.80
2022-08-17T05:23:13.751Z,15.15
2022-08-17T05:25:47.754Z,13.32
2022-08-17T05:28:16.808Z,13.02
2022-08-17T05:30:46.190Z,13.05
2022-08-17T05:33:25.625Z,13.30
2022-08-17T05:35:56.136Z,13.80
2022-08-17T05:38:26.171Z,14.52
2022-08-17T05:40:54.289Z,14.52
2022-08-17T05:43:24.351Z,15.90
2022-08-17T05:46:03.610Z,16.15
2022-08-17T05:48:39.983Z,17.23
2022-08-17T05:51:48.755Z,20.08
2022-08-17T05:54:27.068Z,19.17
2022-08-17T05:56:53.840Z,21.50
2022-08-17T05:59:36.391Z,20.45
2022-08-17T06:02:23.106Z,22.23
2022-08-17T06:05:08.705Z,21.50
2022-08-17T06:07:54.756Z,20.33
2022-08-17T06:10:44.218Z,21.73
2022-08-17T06:13:26.010Z,19.58
2022-08-17T06:16:33.071Z,19.42
2022-08-17T06:19:00.996Z,21.38
2022-08-17T06:21:34.249Z,17.13
2022-08-17T06:24:34.365Z,20.13
2022-08-17T06:27:10.180Z,17.38
2022-08-17T06:29:58.168Z,16.50
2022-08-17T06:32:25.686Z,17.05
2022-08-17T06:34:53.645Z,15.90
2022-08-17T06:37:31.977Z,15.60
2022-08-17T06:40:20.986Z,15.00
2022-08-17T06:43:05.025Z,13.80
2022-08-17T06:45:41.965Z,14.32
2022-08-17T06:48:15.337Z,13.88
2022-08-17T06:50:49.197Z,14.73
2022-08-17T06:53:59.980Z,13.80
2022-08-17T06:56:53.568Z,13.45
2022-08-17T06:59:54.374Z,15.10
2022-08-17T07:02:51.555Z,14.00
2022-08-17T07:05:24.500Z,14.85
2022-08-17T07:08:04.042Z,16.55
2022-08-17T07:10:37.382Z,15.32
2022-08-17T07:13:21.758Z,16.55
2022-08-17T07:15:56.421Z,16.77
2022-08-17T07:18:26.723Z,16.33
2022-08-17T07:20:59.941Z,16.55
2022-08-17T07:23:38.290Z,15.98
2022-08-17T07:26:06.294Z,16.92
2022-08-17T07:28:34.999Z,15.65
2022-08-17T07:31:04.750Z,16.23
2022-08-17T07:33:35.046Z,14.25
2022-08-17T07:36:02.440Z,15.90
2022-08-17T07:38:32.073Z,14.82
2022-08-17T07:41:05.063Z,15.70
2022-08-17T07:43:41.042Z,15.63
2022-08-17T07:46:42.395Z,15.40
2022-08-17T07:49:09.357Z,14.65
2022-08-17T07:51:45.831Z,16.08
2022-08-17T07:54:15.976Z,15.98
2022-08-17T07:56:45.630Z,16.08
2022-08-17T07:59:24.375Z,15.68
2022-08-17T08:01:58.103Z,16.98
2022-08-17T08:07:16.422Z,16.73
2022-08-17T08:10:00.870Z,16.33
2022-08-17T08:12:43.842Z,16.02
2022-08-17T08:15:33.302Z,23.02
2022-08-17T08:18:03.747Z,16.40
2022-08-17T08:20:55.332Z,14.48
2022-08-17T08:23:33.496Z,16.88
2022-08-17T08:26:18.587Z,16.50
2022-08-17T08:29:11.404Z,16.15
2022-08-17T08:32:08.619Z,23.52
2022-08-17T08:35:01.428Z,20.10
2022-08-17T08:37:43.675Z,17.70
2022-08-17T08:40:32.754Z,16.20
2022-08-17T08:43:08.969Z,16.23
2022-08-17T08:45:57.869Z,16.45
2022-08-17T08:49:00.921Z,14.27
2022-08-17T08:51:57.991Z,12.80
2022-08-17T08:54:31.411Z,12.95
2022-08-17T09:00:07.931Z,12.02
2022-08-17T09:02:44.025Z,11.20
2022-08-17T09:05:33.659Z,11.52
2022-08-17T09:08:25.481Z,13.02
2022-08-17T09:11:13.144Z,13.05
2022-08-17T09:14:17.143Z,12.70
2022-08-17T09:16:55.168Z,13.80
2022-08-17T09:19:36.738Z,12.25
2022-08-17T09:22:17.473Z,10.95
2022-08-17T09:24:54.694Z,10.98
2022-08-17T09:27:28.397Z,10.43
2022-08-17T09:30:00.775Z,11.10
2022-08-17T09:32:49.995Z,10.75
2022-08-17T09:35:24.151Z,11.13
2022-08-17T09:37:56.025Z,11.43
2022-08-17T09:40:32.990Z,11.88
2022-08-17T09:43:07.081Z,11.75
2022-08-17T09:45:51.219Z,12.00
2022-08-17T09:48:25.311Z,13.10
2022-08-17T09:51:36.233Z,13.32
2022-08-17T09:54:34.989Z,10.25
2022-08-17T09:57:31.790Z,9.35
2022-08-17T10:00:25.221Z,9.70
2022-08-17T10:03:10.256Z,11.90
2022-08-17T10:05:46.474Z,11.80
2022-08-17T10:08:23.032Z,10.40
2022-08-17T10:11:07.137Z,11.57
2022-08-17T10:13:41.334Z,11.75
2022-08-17T10:16:26.169Z,13.65
2022-08-17T10:19:02.589Z,13.80
2022-08-17T10:22:01.222Z,14.95
2022-08-17T10:27:52.777Z,11.88
2022-08-17T10:30:23.735Z,11.25
2022-08-17T10:33:04.756Z,10.27
2022-08-17T10:35:44.098Z,9.98
2022-08-17T10:38:26.036Z,10.77
2022-08-17T10:41:02.250Z,11.23
2022-08-17T10:43:36.894Z,11.38
2022-08-17T10:46:31.238Z,10.98
2022-08-17T10:49:17.124Z,12.02
2022-08-17T10:51:50.036Z,10.85
2022-08-17T10:54:35.868Z,11.30
2022-08-17T10:57:23.096Z,11.52
2022-08-17T10:59:52.803Z,11.63
2022-08-17T11:02:19.741Z,11.48
2022-08-17T11:05:24.158Z,12.20
2022-08-17T11:08:17.696Z,13.00
2022-08-17T11:10:58.158Z,11.40
2022-08-17T11:13:34.351Z,13.02
2022-08-17T11:16:32.661Z,12.75
2022-08-17T11:19:21.340Z,12.10
2022-08-17T11:22:22.896Z,12.30
2022-08-17T11:24:53.655Z,12.88
2022-08-17T11:27:30.483Z,12.50
2022-08-17T11:30:12.331Z,12.02
2022-08-17T11:32:54.354Z,11.25
2022-08-17T11:35:21.863Z,11.57
2022-08-17T11:38:18.072Z,11.98
2022-08-17T11:41:09.812Z,11.23
2022-08-17T11:44:10.600Z,10.70
2022-08-17T11:47:18.186Z,10.90
2022-08-17T11:50:41.761Z,10.80
2022-08-17T11:53:38.071Z,9.20
2022-08-17T11:56:09.624Z,10.40
2022-08-17T11:58:45.051Z,9.63
2022-08-17T12:01:24.327Z,10.50
2022-08-17T12:03:57.097Z,10.02
2022-08-17T12:06:56.926Z,9.70
2022-08-17T12:09:28.597Z,9.45
2022-08-17T12:12:13.335Z,8.65
2022-08-17T12:15:10.492Z,9.23
2022-08-17T12:17:40.739Z,8.52
2022-08-17T12:20:19.765Z,8.52
2022-08-17T12:23:04.443Z,8.13
2022-08-17T12:25:56.893Z,7.82
2022-08-17T12:28:29.594Z,8.18
2022-08-17T12:31:01.758Z,9.27
2022-08-17T12:33:29.159Z,8.70
2022-08-17T12:36:05.560Z,9.27
2022-08-17T12:38:36.133Z,9.20
2022-08-17T12:41:25.069Z,8.20
2022-08-17T12:44:23.228Z,9.48
2022-08-17T12:47:10.780Z,10.27
2022-08-17T12:49:41.612Z,10.20
2022-08-17T12:52:26.035Z,9.85
2022-08-17T12:55:21.308Z,10.30
2022-08-17T12:57:54.343Z,10.05
2022-08-17T13:00:41.231Z,10.43
2022-08-17T13:03:23.947Z,10.23
2022-08-17T13:06:03.433Z,10.88
2022-08-17T13:08:48.066Z,9.95
2022-08-17T13:11:16.239Z,9.88
2022-08-17T13:13:52.054Z,9.45
2022-08-17T13:16:27.740Z,10.88
2022-08-17T13:19:06.906Z,10.60
2022-08-17T13:21:35.544Z,9.93
2022-08-17T13:24:17.452Z,10.43
2022-08-17T13:27:07.906Z,11.60
2022-08-17T13:29:44.304Z,10.13
2022-08-17T13:32:13.078Z,10.98
2022-08-17T13:35:12.390Z,10.25
2022-08-17T13:37:34.366Z,10.38
2022-08-17T13:40:16.230Z,10.52
2022-08-17T13:42:51.780Z,10.90
2022-08-17T13:45:36.126Z,10.02
2022-08-17T13:48:08.800Z,9.75
2022-08-17T13:50:49.313Z,10.18
2022-08-17T13:53:21.282Z,9.77
2022-08-17T13:55:58.398Z,9.38
2022-08-17T13:58:32.994Z,9.32
2022-08-17T14:01:38.470Z,9.63
2022-08-17T14:04:18.112Z,10.10
2022-08-17T14:07:12.532Z,10.05
2022-08-17T14:09:51.859Z,9.98
2022-08-17T14:12:21.947Z,9.65
2022-08-17T14:14:49.696Z,8.07
2022-08-17T14:17:16.672Z,8.13
2022-08-17T14:19:43.459Z,8.40
2022-08-17T14:22:27.038Z,8.88
2022-08-17T14:24:54.199Z,8.45
2022-08-17T14:27:21.858Z,8.18
2022-08-17T14:29:49.165Z,9.55
2022-08-17T14:32:21.211Z,9.45
2022-08-17T14:34:49.758Z,10.13
2022-08-17T14:37:18.323Z,9.40
2022-08-17T14:39:45.291Z,10.43
2022-08-17T14:42:12.644Z,11.45
2022-08-17T14:44:40.096Z,12.43
2022-08-17T14:47:11.984Z,12.15
2022-08-17T14:49:39.015Z,12.32
2022-08-17T14:52:06.242Z,14.30
2022-08-17T14:54:34.622Z,16.15
2022-08-17T14:57:23.384Z,17.27
2022-08-17T14:59:54.545Z,13.38
2022-08-17T15:02:29.507Z,13.63
2022-08-17T15:05:05.494Z,11.30
2022-08-17T15:07:32.566Z,11.82
2022-08-17T15:10:01.416Z,12.43
2022-08-17T15:12:33.309Z,12.45
2022-08-17T15:15:04.610Z,11.73
2022-08-17T15:17:44.430Z,10.23
2022-08-17T15:20:16.206Z,10.07
2022-08-17T15:22:45.543Z,10.57
2022-08-17T15:25:13.691Z,10.05
2022-08-17T15:27:41.735Z,10.57
2022-08-17T15:30:10.128Z,10.93
2022-08-17T15:32:39.619Z,11.32
2022-08-17T15:35:09.155Z,12.57
2022-08-17T15:37:36.454Z,11.63
2022-08-17T15:40:04.616Z,13.15
2022-08-17T15:42:31.790Z,11.80
2022-08-17T15:45:00.138Z,12.10
2022-08-17T15:47:27.065Z,11.15
2022-08-17T15:49:59.426Z,13.18
2022-08-17T15:52:32.071Z,13.55
2022-08-17T15:55:00.834Z,12.05
2022-08-17T15:57:28.208Z,12.57
2022-08-17T15:59:58.400Z,14.60
2022-08-17T16:03:44.649Z,12.82
2022-08-17T16:05:24.863Z,12.50
2022-08-17T16:07:53.166Z,11.75
2022-08-17T16:10:21.169Z,10.70
2022-08-17T16:12:49.686Z,10.77
2022-08-17T16:15:18.876Z,10.65
2022-08-17T16:17:45.682Z,11.23
2022-08-17T16:20:19.699Z,10.93
2022-08-17T16:22:49.494Z,10.90
2022-08-17T16:25:51.892Z,11.88
2022-08-17T16:30:43.590Z,10.30
2022-08-17T16:33:11.755Z,11.57
2022-08-17T16:35:39.019Z,14.43
2022-08-17T16:38:06.977Z,16.67
2022-08-17T16:40:35.994Z,14.70
2022-08-17T16:43:04.619Z,11.43
2022-08-17T16:45:36.960Z,11.70
2022-08-17T16:48:04.558Z,12.00
2022-08-17T16:50:32.376Z,11.50
2022-08-17T16:53:09.066Z,13.65
2022-08-17T16:55:36.444Z,13.20
2022-08-17T16:58:05.584Z,11.82
2022-08-17T17:03:19.498Z,11.57
2022-08-17T17:06:14.454Z,12.32
2022-08-17T17:08:48.549Z,13.48
2022-08-17T17:11:21.618Z,21.10
2022-08-17T17:13:54.198Z,22.35
2022-08-17T17:16:31.834Z,21.67
2022-08-17T17:19:10.376Z,23.90
2022-08-17T17:21:56.777Z,22.67
2022-08-17T17:25:05.583Z,23.85
2022-08-17T17:27:32.326Z,22.33
2022-08-17T17:30:10.144Z,24.88
2022-08-17T17:32:52.839Z,28.50
2022-08-17T17:35:34.947Z,27.88
2022-08-17T17:38:11.091Z,26.45
2022-08-17T17:40:41.931Z,23.17
2022-08-17T17:43:37.016Z,26.13
2022-08-17T17:46:30.796Z,27.17
2022-08-17T17:48:58.176Z,27.45
2022-08-17T17:52:09.075Z,25.63
2022-08-17T17:55:04.598Z,25.60
2022-08-17T17:57:59.649Z,24.27
2022-08-17T18:00:33.982Z,25.80
2022-08-17T18:03:16.432Z,26.10
2022-08-17T18:05:49.179Z,25.65
2022-08-17T18:08:32.052Z,26.90
2022-08-17T18:11:24.413Z,27.65
2022-08-17T18:14:16.437Z,30.17
2022-08-17T18:16:45.253Z,32.97
2022-08-17T18:19:21.054Z,36.80
2022-08-17T18:21:54.508Z,34.42
2022-08-17T18:24:39.879Z,32.55
2022-08-17T18:27:39.398Z,37.15
2022-08-17T18:30:28.882Z,35.70
2022-08-17T18:33:23.297Z,33.45
2022-08-17T18:35:58.908Z,34.72
2022-08-17T18:38:34.233Z,31.77
2022-08-17T18:41:19.790Z,31.40
2022-08-17T18:44:02.861Z,30.40
2022-08-17T18:46:36.800Z,32.58
2022-08-17T18:49:24.296Z,30.45
2022-08-17T18:52:15.762Z,30.35
2022-08-17T18:55:11.557Z,28.45
2022-08-17T18:57:48.449Z,28.60
2022-08-17T19:00:20.996Z,27.25
2022-08-17T19:02:52.244Z,27.05
2022-08-17T19:05:36.679Z,27.73
2022-08-17T19:08:30.532Z,26.65
2022-08-17T19:11:07.454Z,29.52
2022-08-17T19:13:40.212Z,28.02
2022-08-17T19:16:29.447Z,28.70
2022-08-17T19:19:00.110Z,29.40
2022-08-17T19:21:48.071Z,31.70
2022-08-17T19:24:19.486Z,30.07
2022-08-17T19:26:55.888Z,30.63
2022-08-17T19:29:50.738Z,29.02
2022-08-17T19:32:26.518Z,29.85
2022-08-17T19:34:55.065Z,29.85
2022-08-17T19:37:36.721Z,30.05
2022-08-17T19:40:20.307Z,31.85
2022-08-17T19:43:15.317Z,30.70
2022-08-17T19:45:58.383Z,32.65
2022-08-17T19:48:40.394Z,33.13
2022-08-17T19:51:17.986Z,32.15
2022-08-17T19:54:06.293Z,32.53
2022-08-17T20:00:03.513Z,34.67
2022-08-17T20:02:56.355Z,33.67
2022-08-17T20:05:28.233Z,33.63
2022-08-17T20:08:01.200Z,32.47
2022-08-17T20:10:35.198Z,33.97
2022-08-17T20:13:11.090Z,34.28
2022-08-17T20:15:43.140Z,31.90
2022-08-17T20:18:19.072Z,32.90
2022-08-17T20:20:59.803Z,34.85
2022-08-17T20:23:36.312Z,33.22
2022-08-17T20:26:19.393Z,33.33
2022-08-17T20:29:07.633Z,34.63
2022-08-17T20:31:57.414Z,35.58
2022-08-17T20:34:33.738Z,30.20
2022-08-17T20:37:04.438Z,37.55
2022-08-17T20:39:47.021Z,35.70
2022-08-17T20:42:22.701Z,35.40
2022-08-17T20:44:53.533Z,33.17
2022-08-17T20:47:28.624Z,35.05
2022-08-17T20:50:07.187Z,34.17
2022-08-17T20:52:51.079Z,34.95
2022-08-17T20:55:51.166Z,36.13
2022-08-17T20:58:30.563Z,33.45
2022-08-17T21:00:59.004Z,35.08
2022-08-17T21:03:49.944Z,31.30
2022-08-17T21:06:18.435Z,33.78
2022-08-17T21:08:53.873Z,34.22
2022-08-17T21:12:02.765Z,33.70
2022-08-17T21:15:16.177Z,32.97
2022-08-17T21:18:08.169Z,32.25
2022-08-17T21:20:47.483Z,32.08
2022-08-17T21:23:17.303Z,32.50
2022-08-17T21:26:02.620Z,32.03
2022-08-17T21:28:59.933Z,31.90
2022-08-17T21:31:38.236Z,29.85
2022-08-17T21:34:14.983Z,32.78
2022-08-17T21:36:44.433Z,31.65
2022-08-17T21:39:33.126Z,33.03
2022-08-17T21:42:00.563Z,32.78
2022-08-17T21:44:32.289Z,32.38
2022-08-17T21:47:28.119Z,32.53
2022-08-17T21:49:56.238Z,28.70
2022-08-17T21:52:26.918Z,29.80
2022-08-17T21:54:58.498Z,29.55
2022-08-17T21:57:28.180Z,31.30
2022-08-17T21:59:59.841Z,29.40
2022-08-17T22:02:34.347Z,32.30
2022-08-17T22:05:12.323Z,30.42
2022-08-17T22:07:43.233Z,30.25
2022-08-17T22:10:39.382Z,30.75
2022-08-17T22:13:16.818Z,28.55
2022-08-17T22:15:49.804Z,31.05
2022-08-17T22:18:25.123Z,30.85
2022-08-17T22:20:55.237Z,31.95
2022-08-17T22:24:01.552Z,33.70
2022-08-17T22:27:03.658Z,33.50
2022-08-17T22:29:53.146Z,33.47
2022-08-17T22:32:45.489Z,30.65
2022-08-17T22:35:34.588Z,31.02
2022-08-17T22:38:19.609Z,30.08
2022-08-17T22:40:52.602Z,29.90
2022-08-17T22:43:26.457Z,31.23
2022-08-17T22:45:56.141Z,30.75
2022-08-17T22:48:27.892Z,32.03
2022-08-17T22:51:12.264Z,32.80
2022-08-17T22:54:06.304Z,31.65
2022-08-17T22:56:52.545Z,30.60
2022-08-17T22:59:34.338Z,29.42
2022-08-17T23:02:26.198Z,29.75
2022-08-17T23:04:55.693Z,31.40
2022-08-17T23:07:23.123Z,30.27
2022-08-17T23:09:52.439Z,29.65
2022-08-17T23:14:57.141Z,30.48
2022-08-17T23:17:24.487Z,30.60
2022-08-17T23:19:51.893Z,31.40
2022-08-17T23:22:18.739Z,31.35
2022-08-17T23:24:49.877Z,30.30
2022-08-17T23:27:19.062Z,30.27
2022-08-17T23:29:47.202Z,30.45
2022-08-17T23:32:17.226Z,31.45
2022-08-17T23:34:47.168Z,31.67
2022-08-17T23:37:15.360Z,30.85
2022-08-17T23:39:45.059Z,31.67
2022-08-17T23:42:21.735Z,31.13
2022-08-17T23:44:49.465Z,31.63
2022-08-17T23:47:16.551Z,32.83
2022-08-17T23:49:43.501Z,32.78
2022-08-17T23:52:15.035Z,33.10
2022-08-17T23:54:46.688Z,32.40
2022-08-17T23:57:19.125Z,30.42
2022-08-17T23:59:46.362Z,32.63
